Time;durP1;ratioP1;P1;durP2;ratioP2;P2;SDS_P1;SDS_P2;PMS_P1;PMS_P2;Temp;Humidity;BMP_temperature;BMP_pressure;BME280_temperature;BME280_humidity;BME280_pressure;Samples;Min_cycle;Max_cycle;Signal;HPM_P1;HPM_P2
2023/08/31 00:00:55;;;;;;;4.22;2.38;;;14.90;99.90;;;;;;4969296;28;20085;-79
2023/08/31 00:03:21;;;;;;;3.20;2.00;;;15.00;99.90;;;;;;4974627;28;20039;-80
2023/08/31 00:05:46;;;;;;;5.28;2.58;;;14.90;99.90;;;;;;4975063;28;20023;-78
2023/08/31 00:08:12;;;;;;;3.85;1.75;;;14.90;99.90;;;;;;4975113;28;20031;-78
2023/08/31 00:10:38;;;;;;;3.00;1.98;;;14.90;99.90;;;;;;4976808;28;20095;-79
2023/08/31 00:13:07;;;;;;;2.67;1.90;;;14.90;99.90;;;;;;4974544;28;20023;-78
2023/08/31 00:15:35;;;;;;;2.55;1.63;;;14.90;99.90;;;;;;4963401;28;20509;-77
2023/08/31 00:18:02;;;;;;;4.45;2.03;;;14.90;99.90;;;;;;4972767;28;20043;-77
2023/08/31 00:20:30;;;;;;;4.95;2.05;;;14.80;99.90;;;;;;4969156;28;20032;-78
2023/08/31 00:23:01;;;;;;;4.80;1.88;;;14.90;99.90;;;;;;4970311;28;20039;-79
2023/08/31 00:25:28;;;;;;;5.38;2.25;;;14.80;99.90;;;;;;4957406;28;20031;-78
2023/08/31 00:27:53;;;;;;;3.25;1.80;;;14.80;99.90;;;;;;4959239;28;20023;-79
2023/08/31 00:30:19;;;;;;;6.00;2.00;;;14.80;99.90;;;;;;4952185;28;20050;-78
2023/08/31 00:32:47;;;;;;;2.63;1.80;;;14.80;99.90;;;;;;4972875;28;20023;-78
2023/08/31 00:35:12;;;;;;;2.67;1.88;;;14.80;99.90;;;;;;4973855;28;20027;-78
2023/08/31 00:37:38;;;;;;;4.20;1.70;;;14.80;99.90;;;;;;4952759;28;20050;-78
2023/08/31 00:40:04;;;;;;;4.22;2.08;;;14.80;99.90;;;;;;4975566;28;20501;-78
2023/08/31 00:42:31;;;;;;;3.88;1.77;;;14.80;99.90;;;;;;4971776;28;20058;-80
2023/08/31 00:44:57;;;;;;;3.65;1.95;;;14.80;99.90;;;;;;4974775;28;20047;-79
2023/08/31 00:47:28;;;;;;;2.58;1.98;;;14.80;99.90;;;;;;4970685;28;20030;-78
2023/08/31 00:49:57;;;;;;;2.70;1.60;;;14.70;99.90;;;;;;4959960;28;20034;-78
2023/08/31 00:52:26;;;;;;;3.85;1.95;;;14.80;99.90;;;;;;4960446;28;20074;-78
2023/08/31 00:54:53;;;;;;;2.97;1.90;;;14.80;99.90;;;;;;4971563;28;20030;-77
2023/08/31 00:57:18;;;;;;;3.08;1.55;;;14.70;99.90;;;;;;4968482;28;20755;-77
2023/08/31 00:59:44;;;;;;;3.95;1.77;;;14.70;99.90;;;;;;4969115;28;20022;-77
2023/08/31 01:02:22;;;;;;;3.33;1.70;;;14.70;99.90;;;;;;4972032;28;20027;-78
2023/08/31 01:05:13;;;;;;;2.72;1.80;;;14.70;99.90;;;;;;4971986;28;20034;-79
2023/08/31 01:08:07;;;;;;;5.97;1.88;;;14.70;99.90;;;;;;4957386;28;20127;-78
2023/08/31 01:11:00;;;;;;;4.03;1.63;;;14.70;99.90;;;;;;4922245;29;20539;-78
2023/08/31 01:13:30;;;;;;;4.13;1.60;;;14.70;99.90;;;;;;4976631;28;20026;-78
2023/08/31 01:16:03;;;;;;;1.85;1.20;;;14.70;99.90;;;;;;4969535;28;20027;-78
2023/08/31 01:18:31;;;;;;;2.33;1.33;;;14.70;99.90;;;;;;4957096;28;20026;-78
2023/08/31 01:21:17;;;;;;;3.53;1.60;;;14.70;99.90;;;;;;4971883;28;20081;-77
2023/08/31 01:23:57;;;;;;;1.83;1.40;;;14.60;99.90;;;;;;4976855;28;20035;-77
2023/08/31 01:26:24;;;;;;;2.35;1.40;;;14.60;99.90;;;;;;4977132;28;20061;-79
2023/08/31 01:28:51;;;;;;;3.60;1.55;;;14.60;99.90;;;;;;4954581;28;20027;-80
2023/08/31 01:31:17;;;;;;;2.03;1.50;;;14.60;99.90;;;;;;4957222;28;20618;-79
2023/08/31 01:33:42;;;;;;;2.58;1.40;;;14.60;99.90;;;;;;4969519;28;20034;-80
2023/08/31 01:36:24;;;;;;;1.95;1.52;;;14.70;99.90;;;;;;4968940;28;20106;-79
2023/08/31 01:39:06;;;;;;;3.95;1.80;;;14.70;99.90;;;;;;4969523;28;20557;-78
2023/08/31 01:41:35;;;;;;;3.95;1.42;;;14.70;99.90;;;;;;4971362;28;20031;-78
2023/08/31 01:44:02;;;;;;;2.60;1.30;;;14.70;99.90;;;;;;4971577;28;20686;-78
2023/08/31 01:46:28;;;;;;;3.95;1.50;;;14.60;99.90;;;;;;4973655;28;20019;-78
2023/08/31 01:48:54;;;;;;;2.85;1.52;;;14.70;99.90;;;;;;4974277;28;20042;-79
2023/08/31 01:51:19;;;;;;;3.35;1.50;;;14.70;99.90;;;;;;4973229;28;20054;-79
2023/08/31 01:53:45;;;;;;;3.40;1.67;;;14.60;99.90;;;;;;4974971;28;20774;-77
2023/08/31 01:56:10;;;;;;;3.92;1.65;;;14.60;99.90;;;;;;4974823;28;20023;-77
2023/08/31 01:58:36;;;;;;;2.47;1.50;;;14.60;99.90;;;;;;4969147;28;20027;-76
2023/08/31 02:01:02;;;;;;;4.18;1.60;;;14.60;99.90;;;;;;4971623;28;20153;-77
2023/08/31 02:03:27;;;;;;;2.22;1.70;;;14.60;99.90;;;;;;4974544;28;20026;-80
2023/08/31 02:05:54;;;;;;;3.53;1.40;;;14.60;99.90;;;;;;4972874;28;20035;-78
2023/08/31 02:08:19;;;;;;;2.17;1.40;;;14.60;99.90;;;;;;4974792;28;20027;-78
2023/08/31 02:10:48;;;;;;;4.22;1.20;;;14.60;99.90;;;;;;4953078;28;20029;-78
2023/08/31 02:13:15;;;;;;;1.48;1.23;;;14.50;99.90;;;;;;4950277;28;20090;-77
2023/08/31 02:15:43;;;;;;;2.10;1.40;;;14.50;99.90;;;;;;4972538;28;20077;-76
2023/08/31 02:18:09;;;;;;;2.90;1.70;;;14.50;99.90;;;;;;4969738;28;20037;-75
2023/08/31 02:20:34;;;;;;;1.98;1.20;;;14.50;99.90;;;;;;4971265;28;20028;-75
2023/08/31 02:23:00;;;;;;;3.20;2.05;;;14.50;99.90;;;;;;4974652;28;20023;-75
2023/08/31 02:25:27;;;;;;;2.88;1.85;;;14.40;99.90;;;;;;4959566;28;20101;-76
2023/08/31 02:27:54;;;;;;;3.85;1.63;;;14.40;99.90;;;;;;4969182;28;20141;-77
2023/08/31 02:30:19;;;;;;;3.30;1.73;;;14.40;99.90;;;;;;4968643;28;20049;-78
2023/08/31 02:32:45;;;;;;;2.97;1.52;;;14.50;99.90;;;;;;4950259;28;20027;-75
2023/08/31 02:35:12;;;;;;;3.20;1.35;;;14.40;99.90;;;;;;4967843;28;20046;-77
2023/08/31 02:37:37;;;;;;;2.35;1.38;;;14.40;99.90;;;;;;5003738;23;20878;-78
2023/08/31 02:40:10;;;;;;;4.13;1.60;;;14.40;99.90;;;;;;4972059;28;20456;-76
2023/08/31 02:42:36;;;;;;;4.28;1.80;;;14.40;99.90;;;;;;4976736;28;20401;-78
2023/08/31 02:45:02;;;;;;;11.50;2.10;;;14.40;99.90;;;;;;4973816;28;20032;-75
2023/08/31 02:47:28;;;;;;;2.00;1.33;;;14.40;99.90;;;;;;4966414;28;20035;-77
2023/08/31 02:49:56;;;;;;;3.03;1.75;;;14.40;99.90;;;;;;4969667;28;20034;-75
2023/08/31 02:52:22;;;;;;;3.53;1.70;;;14.30;99.90;;;;;;4969495;28;20054;-76
2023/08/31 02:54:47;;;;;;;4.28;1.67;;;14.30;99.90;;;;;;4973869;28;20047;-77
2023/08/31 02:57:15;;;;;;;3.17;1.60;;;14.30;99.90;;;;;;4957111;28;20148;-77
2023/08/31 02:59:42;;;;;;;3.05;1.48;;;14.30;99.90;;;;;;4974587;28;20031;-76
2023/08/31 03:02:14;;;;;;;4.07;1.60;;;14.30;99.90;;;;;;4970581;28;20030;-79
2023/08/31 03:04:40;;;;;;;3.95;1.77;;;14.30;99.90;;;;;;4976683;28;20022;-78
2023/08/31 03:07:15;;;;;;;3.60;1.60;;;14.20;99.90;;;;;;4970878;28;20030;-75
2023/08/31 03:09:49;;;;;;;4.47;2.03;;;14.20;99.90;;;;;;4975633;28;20031;-77
2023/08/31 03:12:18;;;;;;;3.08;1.90;;;14.30;99.90;;;;;;4970565;28;20094;-78
2023/08/31 03:14:43;;;;;;;3.65;1.60;;;14.20;99.90;;;;;;4968142;28;20023;-78
2023/08/31 03:17:09;;;;;;;4.95;2.00;;;14.30;99.90;;;;;;4966501;28;20118;-77
2023/08/31 03:19:34;;;;;;;3.30;1.65;;;14.30;99.90;;;;;;4971419;28;20077;-78
2023/08/31 03:22:06;;;;;;;3.72;2.28;;;14.20;99.90;;;;;;4975025;28;20057;-78
2023/08/31 03:24:37;;;;;;;5.32;1.88;;;14.30;99.90;;;;;;4967188;28;20497;-77
2023/08/31 03:27:12;;;;;;;3.85;2.08;;;14.30;99.90;;;;;;4969299;28;20474;-77
2023/08/31 03:29:39;;;;;;;3.83;1.80;;;14.30;99.90;;;;;;4974558;28;20039;-78
2023/08/31 03:32:07;;;;;;;5.65;1.88;;;14.30;99.90;;;;;;4970891;28;20085;-78
2023/08/31 03:34:33;;;;;;;4.65;1.75;;;14.30;99.90;;;;;;4969287;28;20030;-77
2023/08/31 03:37:01;;;;;;;3.88;1.40;;;14.30;99.90;;;;;;4969713;28;20054;-75
2023/08/31 03:39:27;;;;;;;5.80;1.67;;;14.30;99.90;;;;;;4970689;28;20444;-77
2023/08/31 03:41:56;;;;;;;6.60;2.10;;;14.30;99.90;;;;;;4970304;28;20039;-77
2023/08/31 03:44:24;;;;;;;4.32;1.65;;;14.20;99.90;;;;;;4955278;28;20035;-78
2023/08/31 03:46:50;;;;;;;5.47;1.90;;;14.20;99.90;;;;;;4972553;28;20031;-77
2023/08/31 03:49:15;;;;;;;4.50;1.52;;;14.20;99.90;;;;;;4974678;28;20520;-77
2023/08/31 03:51:41;;;;;;;3.90;1.77;;;14.30;99.90;;;;;;4975581;28;20398;-78
2023/08/31 03:54:09;;;;;;;3.65;1.80;;;14.20;99.90;;;;;;4973754;28;20023;-78
2023/08/31 03:56:35;;;;;;;4.45;2.00;;;14.20;99.90;;;;;;4970169;28;20139;-78
2023/08/31 03:59:05;;;;;;;5.88;2.00;;;14.20;99.90;;;;;;4950980;28;20031;-78
2023/08/31 04:01:31;;;;;;;6.15;2.10;;;14.20;99.90;;;;;;4971259;28;20023;-77
2023/08/31 04:04:03;;;;;;;5.97;1.70;;;14.20;99.90;;;;;;4972393;28;20019;-77
2023/08/31 04:06:29;;;;;;;5.35;1.98;;;14.20;99.90;;;;;;4970917;28;20600;-78
2023/08/31 04:08:55;;;;;;;5.45;2.22;;;14.20;99.90;;;;;;4971084;28;20042;-78
2023/08/31 04:11:20;;;;;;;4.82;2.33;;;14.20;99.90;;;;;;4965646;28;20065;-76
2023/08/31 04:13:46;;;;;;;4.05;1.63;;;14.20;99.90;;;;;;4970803;28;20034;-77
2023/08/31 04:16:15;;;;;;;6.90;2.35;;;14.20;99.90;;;;;;4980206;28;20082;-78
2023/08/31 04:18:51;;;;;;;5.00;2.00;;;14.20;99.90;;;;;;4959327;28;20116;-78
2023/08/31 04:21:23;;;;;;;7.25;2.75;;;14.20;99.90;;;;;;4974960;28;20026;-78
2023/08/31 04:23:48;;;;;;;4.60;2.10;;;14.20;99.90;;;;;;4975351;28;20464;-79
2023/08/31 04:26:20;;;;;;;4.50;1.85;;;14.20;99.90;;;;;;4975184;28;20090;-76
2023/08/31 04:28:45;;;;;;;3.42;2.00;;;14.20;99.90;;;;;;4977230;28;20057;-78
2023/08/31 04:31:11;;;;;;;6.53;2.05;;;14.20;99.90;;;;;;4973890;28;20034;-78
2023/08/31 04:33:39;;;;;;;5.93;2.38;;;14.20;99.90;;;;;;4976054;28;20023;-76
2023/08/31 04:36:21;;;;;;;4.72;2.17;;;14.20;99.90;;;;;;4974539;28;20198;-79
2023/08/31 04:38:53;;;;;;;6.05;2.40;;;14.20;99.90;;;;;;4973585;28;20401;-79
2023/08/31 04:41:18;;;;;;;5.10;2.33;;;14.20;99.90;;;;;;4976644;28;20050;-77
2023/08/31 04:43:47;;;;;;;6.28;2.88;;;14.20;99.90;;;;;;4976085;28;20046;-76
2023/08/31 04:46:17;;;;;;;7.90;2.55;;;14.20;99.90;;;;;;4966382;28;20063;-76
2023/08/31 04:48:42;;;;;;;4.68;2.42;;;14.20;99.90;;;;;;4974239;28;20046;-76
2023/08/31 04:51:26;;;;;;;5.18;2.30;;;14.20;99.90;;;;;;4974338;28;20034;-77
2023/08/31 04:53:55;;;;;;;5.60;2.58;;;14.10;99.90;;;;;;4957641;28;20031;-79
2023/08/31 04:56:23;;;;;;;6.13;2.10;;;14.20;99.90;;;;;;4967713;28;20031;-73
2023/08/31 04:58:49;;;;;;;6.30;2.72;;;14.20;99.90;;;;;;4973553;28;20101;-79
2023/08/31 05:01:15;;;;;;;4.95;2.65;;;14.10;99.90;;;;;;4971886;28;20478;-76
2023/08/31 05:03:41;;;;;;;6.57;2.08;;;14.10;99.90;;;;;;4956596;28;20074;-78
2023/08/31 05:06:07;;;;;;;5.45;2.22;;;14.10;99.90;;;;;;4974286;28;20071;-76
2023/08/31 05:08:36;;;;;;;5.53;2.28;;;14.10;99.90;;;;;;4972739;28;20552;-78
2023/08/31 05:11:02;;;;;;;4.28;2.47;;;14.10;99.90;;;;;;4974889;28;20034;-75
2023/08/31 05:13:27;;;;;;;3.75;2.00;;;14.10;99.90;;;;;;4967684;28;20023;-77
2023/08/31 05:15:53;;;;;;;4.10;2.33;;;14.10;99.90;;;;;;4970940;28;20504;-77
2023/08/31 05:18:19;;;;;;;4.68;1.98;;;14.10;99.90;;;;;;4975316;28;20125;-75
2023/08/31 05:20:45;;;;;;;9.95;2.80;;;14.10;99.90;;;;;;4966045;28;20027;-78
2023/08/31 05:23:20;;;;;;;5.70;1.95;;;14.20;99.90;;;;;;4977262;28;20038;-79
2023/08/31 05:25:46;;;;;;;4.20;1.92;;;14.20;99.90;;;;;;4978961;28;20042;-75
2023/08/31 05:28:11;;;;;;;6.25;1.85;;;14.10;99.90;;;;;;4980126;28;20398;-78
2023/08/31 05:30:46;;;;;;;3.67;1.88;;;14.20;99.90;;;;;;4971869;28;20041;-78
2023/08/31 05:33:11;;;;;;;4.53;2.33;;;14.20;99.90;;;;;;4974590;28;20038;-77
2023/08/31 05:35:40;;;;;;;4.32;2.13;;;14.20;99.90;;;;;;4979682;28;20007;-81
2023/08/31 05:38:05;;;;;;;4.75;2.20;;;14.20;99.90;;;;;;4977048;28;20069;-78
2023/08/31 05:40:34;;;;;;;7.07;2.70;;;14.20;99.90;;;;;;4974385;28;20502;-79
2023/08/31 05:43:00;;;;;;;6.50;2.42;;;14.20;99.90;;;;;;4973604;28;20038;-78
2023/08/31 05:45:25;;;;;;;5.40;2.47;;;14.30;99.90;;;;;;4973963;28;20030;-81
2023/08/31 05:47:51;;;;;;;4.05;2.00;;;14.30;99.90;;;;;;4974593;28;20034;-80
2023/08/31 05:50:19;;;;;;;6.45;2.30;;;14.30;99.90;;;;;;4974828;28;20019;-78
2023/08/31 05:52:55;;;;;;;7.72;2.67;;;14.40;99.90;;;;;;4975838;28;20122;-79
2023/08/31 05:55:21;;;;;;;4.10;2.58;;;14.40;99.90;;;;;;4975574;28;20026;-78
2023/08/31 05:57:47;;;;;;;5.38;2.33;;;14.50;99.90;;;;;;4957105;28;20093;-80
2023/08/31 06:00:12;;;;;;;8.88;3.10;;;14.50;99.90;;;;;;4973147;28;20043;-79
2023/08/31 06:02:38;;;;;;;7.10;2.20;;;14.60;99.90;;;;;;4976674;28;20093;-79
2023/08/31 06:05:05;;;;;;;10.77;2.60;;;14.60;99.90;;;;;;4971205;28;20018;-75
2023/08/31 06:07:34;;;;;;;8.27;2.63;;;14.70;99.90;;;;;;4973187;28;20026;-80
2023/08/31 06:09:59;;;;;;;6.68;2.17;;;14.70;99.90;;;;;;4977619;28;22837;-76
2023/08/31 06:12:28;;;;;;;7.60;2.60;;;14.70;99.90;;;;;;4974989;28;20150;-81
2023/08/31 06:14:56;;;;;;;5.90;2.05;;;14.70;99.90;;;;;;4973480;28;20662;-77
2023/08/31 06:17:22;;;;;;;7.28;2.53;;;14.80;99.90;;;;;;4974904;28;20091;-79
2023/08/31 06:19:47;;;;;;;5.50;2.70;;;14.80;99.90;;;;;;4977852;28;20034;-79
2023/08/31 06:22:13;;;;;;;5.22;2.53;;;14.80;99.90;;;;;;4976821;28;20037;-79
2023/08/31 06:24:45;;;;;;;8.35;2.72;;;14.90;99.90;;;;;;4981378;28;20053;-74
2023/08/31 06:27:12;;;;;;;5.70;2.40;;;14.90;99.90;;;;;;4970774;28;20034;-77
2023/08/31 06:29:38;;;;;;;5.95;2.50;;;14.90;99.90;;;;;;4978207;28;20524;-78
2023/08/31 06:32:04;;;;;;;6.43;2.13;;;15.00;99.90;;;;;;4971631;28;20054;-78
2023/08/31 06:34:30;;;;;;;3.78;2.10;;;15.00;99.90;;;;;;4977640;28;20120;-80
2023/08/31 06:36:58;;;;;;;6.68;2.67;;;15.10;99.90;;;;;;4976651;28;20022;-79
2023/08/31 06:39:24;;;;;;;4.90;2.10;;;15.10;99.90;;;;;;4972912;28;20028;-80
2023/08/31 06:41:52;;;;;;;3.97;1.77;;;15.20;99.90;;;;;;4964797;28;20034;-80
2023/08/31 06:44:21;;;;;;;7.38;2.35;;;15.20;99.90;;;;;;4984951;28;20034;-79
2023/08/31 06:46:47;;;;;;;4.63;2.25;;;15.20;99.90;;;;;;4965324;28;20516;-77
2023/08/31 06:49:15;;;;;;;4.85;1.77;;;15.30;99.90;;;;;;4978829;28;20039;-79
2023/08/31 06:51:41;;;;;;;3.60;1.98;;;15.30;99.90;;;;;;4963737;28;20031;-75
2023/08/31 06:54:06;;;;;;;3.90;1.88;;;15.30;99.90;;;;;;4974375;28;20101;-78
2023/08/31 06:56:38;;;;;;;4.10;1.92;;;15.30;99.90;;;;;;4977881;28;20058;-79
2023/08/31 06:59:10;;;;;;;4.70;2.10;;;15.30;99.90;;;;;;4974026;28;20464;-78
2023/08/31 07:01:38;;;;;;;4.97;1.90;;;15.30;99.90;;;;;;4978741;28;20059;-79
2023/08/31 07:04:04;;;;;;;6.85;2.00;;;15.40;99.90;;;;;;4981477;28;20027;-78
2023/08/31 07:06:33;;;;;;;12.43;2.08;;;15.50;99.90;;;;;;4962674;28;20025;-78
2023/08/31 07:08:59;;;;;;;2.33;1.52;;;15.50;99.90;;;;;;4975792;28;20034;-79
2023/08/31 07:11:26;;;;;;;4.07;1.92;;;15.50;99.90;;;;;;4966368;28;20027;-77
2023/08/31 07:13:52;;;;;;;3.85;1.67;;;15.50;99.90;;;;;;4971344;28;20441;-80
2023/08/31 07:16:17;;;;;;;6.22;2.45;;;15.50;99.90;;;;;;4956299;28;20066;-77
2023/08/31 07:18:46;;;;;;;3.95;1.65;;;15.60;99.90;;;;;;4969628;28;20033;-78
2023/08/31 07:21:12;;;;;;;4.75;1.85;;;15.60;99.90;;;;;;4970614;28;20054;-80
2023/08/31 07:23:37;;;;;;;6.40;2.00;;;15.60;99.90;;;;;;4976148;28;20046;-80
2023/08/31 07:26:04;;;;;;;4.72;1.50;;;15.60;99.90;;;;;;4970098;28;20071;-78
2023/08/31 07:28:30;;;;;;;3.75;1.90;;;15.70;99.90;;;;;;4974787;28;20111;-79
2023/08/31 07:31:06;;;;;;;6.00;1.88;;;15.70;99.90;;;;;;4975614;28;20026;-78
2023/08/31 07:33:32;;;;;;;5.15;1.88;;;15.70;99.90;;;;;;4969777;28;20167;-80
2023/08/31 07:36:05;;;;;;;6.20;2.03;;;15.80;99.90;;;;;;4969601;28;20026;-79
2023/08/31 07:38:37;;;;;;;4.30;1.80;;;15.80;99.90;;;;;;4965469;28;20450;-78
2023/08/31 07:41:04;;;;;;;4.82;2.13;;;15.90;99.90;;;;;;4968541;28;20031;-77
2023/08/31 07:43:35;;;;;;;3.63;1.67;;;15.90;99.90;;;;;;4962113;28;20513;-77
2023/08/31 07:46:01;;;;;;;3.97;1.45;;;15.90;99.90;;;;;;4965614;28;20035;-77
2023/08/31 07:48:35;;;;;;;6.50;2.05;;;16.00;99.90;;;;;;4969684;28;20710;-79
2023/08/31 07:51:01;;;;;;;5.40;1.60;;;16.00;99.90;;;;;;4966913;28;20033;-77
2023/08/31 07:53:29;;;;;;;2.95;1.48;;;16.10;99.90;;;;;;4967325;28;20023;-77
2023/08/31 07:55:59;;;;;;;5.25;1.95;;;16.10;99.90;;;;;;4955655;28;20026;-76
2023/08/31 07:58:27;;;;;;;5.28;1.38;;;16.20;99.90;;;;;;4967700;28;20086;-77
2023/08/31 08:00:54;;;;;;;3.72;1.77;;;16.30;99.90;;;;;;4969813;28;20023;-78
2023/08/31 08:03:20;;;;;;;11.70;2.08;;;16.30;99.90;;;;;;4971351;28;20033;-77
2023/08/31 08:05:46;;;;;;;4.82;1.98;;;16.40;99.90;;;;;;4965411;28;20078;-75
2023/08/31 08:08:21;;;;;;;3.10;1.50;;;16.30;99.90;;;;;;4968196;28;20031;-77
2023/08/31 08:10:53;;;;;;;4.13;1.20;;;16.40;99.90;;;;;;4968428;28;20625;-78
2023/08/31 08:13:18;;;;;;;5.60;1.55;;;16.40;99.90;;;;;;4972959;28;20031;-77
2023/08/31 08:15:45;;;;;;;3.22;1.40;;;16.40;99.90;;;;;;4968808;28;20019;-75
2023/08/31 08:18:11;;;;;;;3.55;1.55;;;16.30;99.90;;;;;;4965499;28;20039;-77
2023/08/31 08:20:36;;;;;;;3.40;1.55;;;16.40;99.90;;;;;;4966225;28;20026;-77
2023/08/31 08:23:02;;;;;;;3.83;1.70;;;16.50;99.90;;;;;;4950340;28;20070;-76
2023/08/31 08:25:28;;;;;;;3.60;1.77;;;16.50;99.90;;;;;;4953928;28;20082;-78
2023/08/31 08:27:53;;;;;;;3.15;1.52;;;16.50;99.90;;;;;;4970655;28;20038;-79
2023/08/31 08:30:19;;;;;;;2.63;1.63;;;16.60;99.90;;;;;;4972492;28;20043;-76
2023/08/31 08:32:45;;;;;;;5.85;1.38;;;16.60;99.90;;;;;;4961821;28;20031;-79
2023/08/31 08:35:10;;;;;;;4.03;1.67;;;16.70;99.90;;;;;;4967188;28;20050;-78
2023/08/31 08:37:36;;;;;;;3.63;1.50;;;16.80;99.90;;;;;;4951103;23;1054031;-77
2023/08/31 08:40:03;;;;;;;6.78;1.60;;;16.80;99.90;;;;;;4976119;28;20288;-77
2023/08/31 08:42:31;;;;;;;3.08;1.65;;;16.90;99.90;;;;;;4961785;28;20023;-76
2023/08/31 08:45:00;;;;;;;5.93;1.20;;;16.90;99.90;;;;;;4976536;28;20023;-77
2023/08/31 08:47:27;;;;;;;5.80;1.92;;;16.90;99.90;;;;;;4978074;28;20053;-75
2023/08/31 08:49:54;;;;;;;3.03;1.23;;;16.90;99.90;;;;;;4992601;28;20022;-74
2023/08/31 08:52:21;;;;;;;3.78;1.52;;;16.90;99.90;;;;;;4992327;28;20033;-76
2023/08/31 08:54:54;;;;;;;5.13;2.05;;;17.00;99.90;;;;;;4991994;28;20057;-75
2023/08/31 08:57:22;;;;;;;5.60;1.48;;;17.00;99.90;;;;;;4992014;28;20037;-75
2023/08/31 08:59:47;;;;;;;2.60;1.20;;;17.00;99.90;;;;;;4992345;28;20030;-76
2023/08/31 09:02:13;;;;;;;8.65;1.52;;;17.00;99.90;;;;;;4985781;28;20105;-76
2023/08/31 09:04:39;;;;;;;5.70;1.98;;;17.10;99.90;;;;;;4977145;28;20030;-77
2023/08/31 09:07:05;;;;;;;3.22;1.55;;;17.20;99.90;;;;;;4977112;28;20054;-77
2023/08/31 09:09:50;;;;;;;3.03;1.25;;;17.20;99.90;;;;;;4976770;28;20081;-78
2023/08/31 09:12:21;;;;;;;3.38;1.67;;;17.30;99.90;;;;;;4975127;28;20031;-77
2023/08/31 09:14:58;;;;;;;5.63;1.70;;;17.40;99.60;;;;;;4976824;28;20033;-77
2023/08/31 09:17:41;;;;;;;4.07;1.50;;;17.40;99.90;;;;;;4976094;28;20019;-76
2023/08/31 09:20:09;;;;;;;5.97;1.85;;;17.50;99.50;;;;;;4976321;28;20560;-77
2023/08/31 09:22:44;;;;;;;2.22;1.30;;;17.50;99.50;;;;;;4976417;28;20248;-77
2023/08/31 09:25:10;;;;;;;3.22;1.38;;;17.60;99.10;;;;;;4976245;28;20473;-76
2023/08/31 09:27:40;;;;;;;4.57;1.63;;;17.60;98.70;;;;;;4975183;28;20104;-74
2023/08/31 09:30:07;;;;;;;4.53;1.60;;;17.60;99.30;;;;;;4976083;28;20391;-76
2023/08/31 09:32:36;;;;;;;4.10;1.27;;;17.60;99.30;;;;;;4974597;28;20027;-75
2023/08/31 09:35:13;;;;;;;3.40;1.45;;;17.60;98.70;;;;;;4964645;28;20444;-75
2023/08/31 09:37:41;;;;;;;3.67;1.75;;;17.60;99.20;;;;;;4975799;28;20042;-77
2023/08/31 09:40:08;;;;;;;3.50;1.63;;;17.60;98.80;;;;;;4958587;28;20050;-76
2023/08/31 09:42:58;;;;;;;4.22;1.67;;;17.60;98.60;;;;;;4976209;28;20624;-76
2023/08/31 09:45:30;;;;;;;3.33;1.45;;;17.60;99.00;;;;;;4975336;28;20035;-78
2023/08/31 09:47:58;;;;;;;2.83;1.65;;;17.60;98.80;;;;;;4976303;28;20085;-77
2023/08/31 09:50:25;;;;;;;5.78;1.80;;;17.70;98.20;;;;;;4975964;28;20508;-76
2023/08/31 09:52:55;;;;;;;3.08;1.50;;;17.80;98.00;;;;;;4958466;28;20078;-75
2023/08/31 09:55:23;;;;;;;2.38;1.10;;;17.90;97.70;;;;;;4975141;28;20523;-75
2023/08/31 09:57:51;;;;;;;6.57;2.08;;;18.00;97.40;;;;;;4975244;28;20023;-76
2023/08/31 10:00:18;;;;;;;3.35;1.70;;;18.10;97.10;;;;;;4974993;28;20047;-75
2023/08/31 10:02:44;;;;;;;3.20;1.90;;;18.10;97.10;;;;;;4957569;28;20062;-75
2023/08/31 10:05:14;;;;;;;4.22;1.52;;;18.10;97.40;;;;;;4957799;28;20026;-76
2023/08/31 10:07:43;;;;;;;5.20;1.60;;;18.20;97.40;;;;;;4975757;28;20413;-77
2023/08/31 10:10:14;;;;;;;3.25;1.30;;;18.30;97.60;;;;;;4959887;28;20027;-77
2023/08/31 10:12:45;;;;;;;4.28;1.88;;;18.40;96.80;;;;;;4958743;28;20034;-76
2023/08/31 10:15:12;;;;;;;4.72;1.83;;;18.50;96.20;;;;;;4976156;28;20505;-77
2023/08/31 10:17:39;;;;;;;4.53;1.80;;;18.60;95.80;;;;;;4974740;28;20033;-78
2023/08/31 10:20:09;;;;;;;6.55;1.70;;;18.70;95.40;;;;;;4978903;28;20018;-76
2023/08/31 10:22:39;;;;;;;3.70;2.03;;;18.80;95.20;;;;;;4976022;28;20035;-77
2023/08/31 10:25:06;;;;;;;5.18;1.67;;;18.80;95.40;;;;;;4975241;28;20397;-77
2023/08/31 10:27:38;;;;;;;5.35;1.75;;;18.90;94.90;;;;;;4975086;28;20034;-77
2023/08/31 10:30:17;;;;;;;2.60;1.50;;;18.90;94.70;;;;;;4973778;28;20397;-77
2023/08/31 10:32:43;;;;;;;4.65;1.40;;;18.90;94.40;;;;;;4973705;28;20027;-77
2023/08/31 10:35:09;;;;;;;3.30;2.25;;;18.90;94.00;;;;;;4972388;28;20031;-77
2023/08/31 10:37:34;;;;;;;6.38;1.65;;;18.90;94.50;;;;;;4955021;28;20031;-76
2023/08/31 10:40:08;;;;;;;4.50;1.85;;;19.00;94.80;;;;;;4955255;29;20046;-76
2023/08/31 10:42:42;;;;;;;5.78;1.92;;;19.00;94.70;;;;;;4953943;29;20378;-76
2023/08/31 10:45:08;;;;;;;4.65;1.85;;;19.10;93.90;;;;;;4956150;29;20027;-76
2023/08/31 10:47:39;;;;;;;4.93;1.90;;;19.10;93.90;;;;;;4953884;28;20023;-76
2023/08/31 10:50:19;;;;;;;4.20;1.42;;;19.20;93.40;;;;;;4953488;28;20023;-76
2023/08/31 10:52:45;;;;;;;4.93;1.58;;;19.20;93.30;;;;;;4955276;29;20028;-76
2023/08/31 10:55:11;;;;;;;2.35;1.35;;;19.30;93.60;;;;;;4954367;29;20094;-77
2023/08/31 10:57:37;;;;;;;4.45;1.38;;;19.30;93.10;;;;;;4955206;28;20035;-76
2023/08/31 11:00:04;;;;;;;2.42;1.38;;;19.10;91.40;;;;;;4953738;29;20045;-76
2023/08/31 11:02:37;;;;;;;5.10;1.85;;;19.00;91.10;;;;;;4954084;28;20031;-76
2023/08/31 11:05:14;;;;;;;3.67;1.77;;;19.00;91.30;;;;;;4955866;29;20036;-76
2023/08/31 11:07:44;;;;;;;4.72;1.83;;;19.00;90.90;;;;;;4954578;28;20083;-76
2023/08/31 11:10:18;;;;;;;4.25;1.60;;;19.00;91.20;;;;;;4955941;29;20031;-77
2023/08/31 11:13:15;;;;;;;4.95;1.73;;;19.00;91.50;;;;;;4956077;29;20023;-77
2023/08/31 11:15:46;;;;;;;2.42;1.40;;;19.00;91.40;;;;;;4937005;29;20483;-77
2023/08/31 11:18:12;;;;;;;6.05;1.55;;;18.90;90.90;;;;;;4955704;28;20489;-77
2023/08/31 11:20:38;;;;;;;4.78;1.60;;;18.90;90.50;;;;;;4954972;29;20030;-75
2023/08/31 11:23:07;;;;;;;3.08;1.40;;;18.90;91.00;;;;;;4954686;28;20398;-75
2023/08/31 11:25:33;;;;;;;4.30;1.45;;;19.00;91.00;;;;;;4953434;29;20035;-75
2023/08/31 11:28:01;;;;;;;5.20;1.73;;;19.00;91.40;;;;;;4953281;28;20028;-76
2023/08/31 11:30:44;;;;;;;4.97;1.58;;;18.90;90.80;;;;;;4954768;29;20082;-75
2023/08/31 11:33:15;;;;;;;3.63;2.20;;;19.00;91.10;;;;;;4955242;28;20027;-75
2023/08/31 11:35:44;;;;;;;3.88;1.70;;;19.00;91.10;;;;;;4959059;28;20269;-77
2023/08/31 11:38:10;;;;;;;3.58;1.60;;;18.90;90.80;;;;;;4957564;28;20034;-77
2023/08/31 11:40:39;;;;;;;4.28;1.52;;;19.00;91.30;;;;;;4976102;28;20023;-77
2023/08/31 11:43:08;;;;;;;2.65;1.33;;;19.00;90.90;;;;;;4974717;28;20046;-77
2023/08/31 11:45:38;;;;;;;2.75;1.42;;;19.00;91.00;;;;;;4956611;28;20035;-76
2023/08/31 11:48:13;;;;;;;3.65;1.98;;;19.10;90.70;;;;;;4956647;28;20031;-76
2023/08/31 11:50:40;;;;;;;2.90;1.48;;;19.10;90.90;;;;;;4972883;28;20030;-75
2023/08/31 11:53:09;;;;;;;4.63;1.70;;;19.20;91.00;;;;;;4956434;28;20023;-77
2023/08/31 11:55:34;;;;;;;4.03;2.00;;;19.30;90.80;;;;;;4974364;28;20031;-76
2023/08/31 11:58:07;;;;;;;5.25;1.45;;;19.20;90.20;;;;;;4974267;28;20023;-75
2023/08/31 12:00:33;;;;;;;5.03;2.03;;;19.30;90.70;;;;;;4974933;28;21399;-77
2023/08/31 12:03:11;;;;;;;3.85;1.92;;;19.40;90.90;;;;;;4956217;28;20035;-76
2023/08/31 12:05:47;;;;;;;3.78;1.50;;;19.40;90.80;;;;;;4973736;28;20450;-75
2023/08/31 12:08:16;;;;;;;4.70;1.65;;;19.60;90.30;;;;;;4973772;28;20023;-76
2023/08/31 12:10:48;;;;;;;6.53;1.75;;;19.70;90.80;;;;;;4973921;28;20027;-76
2023/08/31 12:13:13;;;;;;;5.28;1.70;;;19.80;90.40;;;;;;4973584;28;20045;-75
2023/08/31 12:15:53;;;;;;;3.00;1.60;;;19.90;91.00;;;;;;4973704;28;20030;-74
2023/08/31 12:18:19;;;;;;;3.70;1.92;;;19.90;89.50;;;;;;4973481;28;20019;-76
2023/08/31 12:20:53;;;;;;;3.30;1.65;;;19.90;89.50;;;;;;4956444;28;20062;-76
2023/08/31 12:23:22;;;;;;;3.63;1.38;;;19.90;88.80;;;;;;4973447;28;20039;-75
2023/08/31 12:26:01;;;;;;;2.22;1.20;;;19.90;88.80;;;;;;4956152;28;20023;-75
2023/08/31 12:28:26;;;;;;;3.60;1.42;;;19.90;89.50;;;;;;4973346;28;20031;-76
2023/08/31 12:30:56;;;;;;;2.78;1.38;;;19.90;89.60;;;;;;4973360;28;20117;-75
2023/08/31 12:33:22;;;;;;;3.70;1.60;;;19.90;88.00;;;;;;4973256;28;20093;-76
2023/08/31 12:35:50;;;;;;;3.13;1.45;;;19.90;88.20;;;;;;4975098;28;20030;-75
2023/08/31 12:38:19;;;;;;;3.67;1.58;;;19.90;86.60;;;;;;4959651;28;20440;-76
2023/08/31 12:40:48;;;;;;;3.58;1.48;;;20.00;87.80;;;;;;4977221;28;20448;-76
2023/08/31 12:43:16;;;;;;;4.22;1.67;;;20.00;88.20;;;;;;4977026;28;20374;-75
2023/08/31 12:45:41;;;;;;;5.32;1.90;;;20.10;87.50;;;;;;4977079;28;20489;-77
2023/08/31 12:48:07;;;;;;;6.95;1.50;;;20.10;87.60;;;;;;4977247;28;20038;-76
2023/08/31 12:50:35;;;;;;;3.97;1.77;;;20.10;87.40;;;;;;4959534;28;20433;-76
2023/08/31 12:53:04;;;;;;;5.43;2.03;;;20.20;86.90;;;;;;4977670;28;20034;-76